Thackerville, OK (73459)

11:37 PM CDT on July 30, 2016 (GMT -0500)
Gainesville | | Change Station

Elev 829 ft 33.68 °N, 97.17 °W | Updated 2 seconds ago

Clear
Clear
84.1 °F
Feels Like 89 °F
N
5.0
Wind Variable Wind from SE
Gusts 9.0 mph

Today
High -- | Low -- °F
--% Chance of Precip.
Yesterday
High -- | Low -- °F
Precip. -- in
Pressure 29.95 in
Visibility -9999.0 miles
Clouds Clear
Heat Index 89 °F
Dew Point 70 °F
Humidity 63%
Rainfall 0.00 in
Snow Depth Not available.
6:39 AM 8:30 PM
Waning Crescent, 9% visible
METAR KGLE 310415Z AUTO 15006KT CLR 27/20 A2995 RMK AO2 T02710198 PWINO
Pressure 29.95 in
Visibility -9999.0 miles
Clouds Clear
Heat Index 89 °F
Dew Point 70 °F
Humidity 63%
Rainfall 0.00 in
Snow Depth Not available.
6:39 AM 8:30 PM
Waning Crescent, 9% visible
METAR KGLE 310415Z AUTO 15006KT CLR 27/20 A2995 RMK AO2 T02710198 PWINO

10-Day Weather Forecast

Almanac

Astronomy

Jul. 30, 2016 Rise Set
Actual Time
Civil Twilight
Nautical Twilight
Astronomical Twilight
Moon
Length of Visible Light
Length of Day
Tomorrow will be .
, % of the Moon is Illuminated

Today's Extremes

State Highs State Lows

Community

WunderPhotos

Upload Photos

1,928,759 photos uploaded!

WunderBlog® & News

Nearby

Air Quality

  Air Quality AQ Index Pollutant
Not available.

Snow Depth

Station Depth Elevation

Earthquake Activity

City Distance Mag. Time & Date
Minimum magnitude displayed is 2.5.

Coastal Water Temperatures

Place Temperature

Stations

Nearby Weather Stations

Station Location Temp. Windchill Dew Point Humidity Wind Precip. Elev Updated Type
                   

Watches & Warnings

There are currently no watches in effect.